Ellsworth, Kansas
Current Conditions -  °F | °C
As of 6:25 AM on Friday 31 Oct 2014 (Local Time) from KSLN Reporting Station
Few Clouds Few Clouds  
Wind Chill: 28°   Ceiling: Unl
Heat Index: 38°   Visibility: 10mi
Dew Point: 29°   Wind: 18mph
Humidity: 70%   Direction: 360°N
Pressure: 30.48"   Gusts: NA
Location:  38.73°N, 98.23°W
Report Text: KSLN 311125Z AUTO 36016KT 10SM FEW024 03/M02 A3048 RMK AO2 T00331017
Loading
Personal Weather Stations






























Interactive Weather Map
Tropical Storm Tracking
New forecast layout! Learn more

10-Day Weather Forecast

Advertisements
Track Severe Weather on mobile